Time;durP1;ratioP1;P1;durP2;ratioP2;P2;SDS_P1;SDS_P2;PMS_P1;PMS_P2;Temp;Humidity;BMP_temperature;BMP_pressure;BME280_temperature;BME280_humidity;BME280_pressure;Samples;Min_cycle;Max_cycle;Signal;HPM_P1;HPM_P2
2020/03/10 00:01:44;;;;;;;4.1;2.6;;;;;;;4.32;78.8418;939.8394;;;;
2020/03/10 00:04:09;;;;;;;3.4;2.5;;;;;;;4.18;78.96387;939.817;;;;
2020/03/10 00:06:35;;;;;;;4.7;2.7;;;;;;;4.13;79.36035;939.7798;;;;
2020/03/10 00:09:00;;;;;;;4.4;2.9;;;;;;;4.09;79.34961;939.7467;;;;
2020/03/10 00:11:25;;;;;;;5.2;2.8;;;;;;;4.18;79.88379;939.652;;;;
2020/03/10 00:13:50;;;;;;;7.1;3.1;;;;;;;4.1;79.84863;939.7117;;;;
2020/03/10 00:16:15;;;;;;;6.3;2.8;;;;;;;4.04;79.81348;939.5835;;;;
2020/03/10 00:18:41;;;;;;;5.4;2.7;;;;;;;3.9;79.76465;939.6301;;;;
2020/03/10 00:21:06;;;;;;;5.3;2.7;;;;;;;3.91;79.54297;939.6219;;;;
2020/03/10 00:23:31;;;;;;;5.4;2.5;;;;;;;3.98;79.65625;939.6551;;;;
2020/03/10 00:25:56;;;;;;;5.7;2.7;;;;;;;3.91;79.50879;939.6786;;;;
2020/03/10 00:28:22;;;;;;;4.4;2.4;;;;;;;3.86;79.39746;939.6122;;;;
2020/03/10 00:30:47;;;;;;;3.9;2.5;;;;;;;3.85;79.33984;939.6739;;;;
2020/03/10 00:33:12;;;;;;;5.6;2.5;;;;;;;3.96;79.87695;939.6487;;;;
2020/03/10 00:35:38;;;;;;;3.8;2.3;;;;;;;3.98;80.07227;939.6771;;;;
2020/03/10 00:38:03;;;;;;;3.6;2.3;;;;;;;4.06;79.7832;939.6;;;;
2020/03/10 00:40:28;;;;;;;4.9;2.8;;;;;;;3.97;79.82324;939.5278;;;;
2020/03/10 00:42:56;;;;;;;6.3;3.3;;;;;;;4.08;79.05566;939.5352;;;;
2020/03/10 00:45:20;;;;;;;4.2;2.5;;;;;;;4.2;78.19043;939.4922;;;;
2020/03/10 00:47:45;;;;;;;6.7;2.7;;;;;;;4.15;78.02148;939.5375;;;;
2020/03/10 00:50:11;;;;;;;13.6;3.8;;;;;;;4.14;77.62793;939.5019;;;;
2020/03/10 00:52:36;;;;;;;6.9;3.1;;;;;;;3.94;78.27539;939.4252;;;;
2020/03/10 00:55:01;;;;;;;6.2;3.3;;;;;;;3.73;79.18359;939.3788;;;;
2020/03/10 00:57:27;;;;;;;4.2;3;;;;;;;3.74;79.12695;939.282;;;;
2020/03/10 00:59:52;;;;;;;6.8;3.2;;;;;;;3.79;78.81152;939.2321;;;;
2020/03/10 01:02:17;;;;;;;7;3.5;;;;;;;3.8;78.12891;939.182;;;;
2020/03/10 01:04:42;;;;;;;4;2.6;;;;;;;3.81;77.55566;939.2458;;;;
2020/03/10 01:07:07;;;;;;;6.5;3;;;;;;;3.83;77.44629;939.2911;;;;
2020/03/10 01:09:34;;;;;;;7.1;3;;;;;;;3.84;77.48145;939.1994;;;;
2020/03/10 01:11:59;;;;;;;5.4;2.8;;;;;;;3.89;77.36816;939.1358;;;;
2020/03/10 01:14:24;;;;;;;4.7;2.9;;;;;;;3.83;77.25684;939.1976;;;;
2020/03/10 01:16:49;;;;;;;4.9;2.8;;;;;;;3.73;77.62109;939.2189;;;;
2020/03/10 01:19:14;;;;;;;5.4;2.7;;;;;;;3.65;77.63965;939.1955;;;;
2020/03/10 01:21:39;;;;;;;4.4;2.6;;;;;;;3.69;77.56641;939.1716;;;;
2020/03/10 01:24:04;;;;;;;4.5;2.5;;;;;;;3.59;77.87695;939.1379;;;;
2020/03/10 01:26:29;;;;;;;4.3;2.3;;;;;;;3.51;78.28711;939.1414;;;;
2020/03/10 01:28:55;;;;;;;4.3;2.4;;;;;;;3.4;78.79492;939.1241;;;;
2020/03/10 01:31:20;;;;;;;4.7;2.3;;;;;;;3.35;78.75293;939.1478;;;;
2020/03/10 01:33:45;;;;;;;5;2.2;;;;;;;3.31;78.85742;939.0123;;;;
2020/03/10 01:36:10;;;;;;;4.1;2.1;;;;;;;3.3;78.83301;939.0836;;;;
2020/03/10 01:38:35;;;;;;;4.8;2.2;;;;;;;3.3;78.50781;938.9979;;;;
2020/03/10 01:41:00;;;;;;;3.5;2.1;;;;;;;3.35;77.99902;939.0475;;;;
2020/03/10 01:43:26;;;;;;;3;2.1;;;;;;;3.35;78.21289;938.9927;;;;
2020/03/10 01:45:51;;;;;;;2.8;1.8;;;;;;;3.29;78.41406;938.9052;;;;
2020/03/10 01:48:16;;;;;;;3.5;2.1;;;;;;;3.24;78.27344;938.9475;;;;
2020/03/10 01:50:41;;;;;;;3;1.8;;;;;;;3.2;78.5791;938.9839;;;;
2020/03/10 01:53:06;;;;;;;2.7;1.8;;;;;;;2.91;80.01758;939.0089;;;;
2020/03/10 01:55:31;;;;;;;3.3;1.8;;;;;;;2.78;80.33008;939.0383;;;;
2020/03/10 01:57:56;;;;;;;4.1;1.8;;;;;;;2.77;80.43848;939.0608;;;;
2020/03/10 02:00:21;;;;;;;4.6;1.6;;;;;;;2.65;80.73047;939.0801;;;;
2020/03/10 02:02:46;;;;;;;3.1;1.5;;;;;;;2.58;80.98535;939.111;;;;
2020/03/10 02:05:12;;;;;;;3.1;1.7;;;;;;;2.36;81.78418;939.1473;;;;
2020/03/10 02:07:37;;;;;;;2.5;1.5;;;;;;;2.21;82.45996;939.2488;;;;
2020/03/10 02:10:02;;;;;;;3.5;1.6;;;;;;;2.23;82.56445;939.2731;;;;
2020/03/10 02:12:28;;;;;;;3.7;1.7;;;;;;;2.31;82.03125;939.3535;;;;
2020/03/10 02:14:53;;;;;;;4.1;1.8;;;;;;;2.52;81.01953;939.335;;;;
2020/03/10 02:17:19;;;;;;;3.3;1.9;;;;;;;2.54;80.42773;939.2916;;;;
2020/03/10 02:19:44;;;;;;;3.3;2;;;;;;;2.63;80.50293;939.2084;;;;
2020/03/10 02:22:09;;;;;;;3.3;1.8;;;;;;;2.62;80.27637;939.1562;;;;
2020/03/10 02:24:34;;;;;;;2.5;1.7;;;;;;;2.68;79.77344;939.1719;;;;
2020/03/10 02:27:01;;;;;;;2.8;1.8;;;;;;;2.67;79.79004;939.1256;;;;
2020/03/10 02:29:26;;;;;;;3;1.7;;;;;;;2.68;79.44824;938.9911;;;;
2020/03/10 02:31:52;;;;;;;6.6;1.7;;;;;;;2.72;79.17285;939.0107;;;;
2020/03/10 02:34:17;;;;;;;4.9;1.7;;;;;;;2.64;79.29395;938.9825;;;;
2020/03/10 02:36:42;;;;;;;3.3;1.9;;;;;;;2.59;79.3418;938.926;;;;
2020/03/10 02:39:07;;;;;;;3.5;1.8;;;;;;;2.49;80.0498;939.0114;;;;
2020/03/10 02:41:32;;;;;;;3.5;1.7;;;;;;;2.42;80.51953;939.0621;;;;
2020/03/10 02:43:57;;;;;;;2.8;1.9;;;;;;;2.42;80.37207;939.032;;;;
2020/03/10 02:46:23;;;;;;;2.7;1.6;;;;;;;2.32;81.04883;938.9375;;;;
2020/03/10 02:48:48;;;;;;;3.7;1.9;;;;;;;2.31;80.73242;938.978;;;;
2020/03/10 02:51:13;;;;;;;2.9;1.8;;;;;;;2.38;80.52148;938.9703;;;;
2020/03/10 02:53:38;;;;;;;3.8;2;;;;;;;2.35;80.59473;938.9152;;;;
2020/03/10 02:56:03;;;;;;;7.1;1.9;;;;;;;2.29;80.8291;938.7947;;;;
2020/03/10 02:58:28;;;;;;;3.1;1.8;;;;;;;2.31;80.65332;938.7533;;;;
2020/03/10 03:00:53;;;;;;;3.1;1.7;;;;;;;2.28;80.77148;938.6933;;;;
2020/03/10 03:03:18;;;;;;;4.3;1.8;;;;;;;2.3;80.5957;938.7605;;;;
2020/03/10 03:05:43;;;;;;;3.2;1.6;;;;;;;2.32;80.35449;938.6099;;;;
2020/03/10 03:08:08;;;;;;;3.5;1.4;;;;;;;2.26;80.20703;938.6074;;;;
2020/03/10 03:10:33;;;;;;;4.8;1.8;;;;;;;2.03;81.65234;938.5811;;;;
2020/03/10 03:12:59;;;;;;;5.2;2.1;;;;;;;1.89;83.00098;938.5528;;;;
2020/03/10 03:15:24;;;;;;;3;1.8;;;;;;;1.91;82.77148;938.5131;;;;
2020/03/10 03:17:49;;;;;;;2.9;1.7;;;;;;;1.84;83.06152;938.5848;;;;
2020/03/10 03:20:14;;;;;;;4.7;2.4;;;;;;;1.73;83.28418;938.4738;;;;
2020/03/10 03:22:39;;;;;;;4.5;2.4;;;;;;;1.63;84.30469;938.442;;;;
2020/03/10 03:25:04;;;;;;;5.2;1.9;;;;;;;1.8;83.55566;938.3508;;;;
2020/03/10 03:27:29;;;;;;;2.6;1.8;;;;;;;;;;;;;
2020/03/10 03:29:54;;;;;;;2.9;1.8;;;;;;;;;;;;;
2020/03/10 03:32:19;;;;;;;2.9;1.7;;;;;;;;;;;;;
2020/03/10 03:34:44;;;;;;;4.4;1.6;;;;;;;;;;;;;
2020/03/10 03:37:09;;;;;;;2.2;1.5;;;;;;;;;;;;;
2020/03/10 03:39:34;;;;;;;2.7;1.4;;;;;;;;;;;;;
2020/03/10 03:42:00;;;;;;;4.6;1.9;;;;;;;;;;;;;
2020/03/10 03:44:25;;;;;;;6.2;3.1;;;;;;;;;;;;;
2020/03/10 03:46:50;;;;;;;5;2.3;;;;;;;;;;;;;
2020/03/10 03:49:15;;;;;;;8.6;2.6;;;;;;;;;;;;;
2020/03/10 03:51:40;;;;;;;6.4;4.5;;;;;;;;;;;;;
2020/03/10 03:54:05;;;;;;;4.6;3.1;;;;;;;;;;;;;
2020/03/10 03:56:30;;;;;;;4.9;3.3;;;;;;;;;;;;;
2020/03/10 03:58:56;;;;;;;4.5;2.2;;;;;;;;;;;;;
2020/03/10 04:02:28;;;;;;;4.1;2.5;;;;;;;2.02;82.06641;938.2935;;;;
2020/03/10 04:04:53;;;;;;;3.5;2.1;;;;;;;1.94;82.39844;938.2358;;;;
2020/03/10 04:07:18;;;;;;;3;1.6;;;;;;;1.78;82.97949;938.344;;;;
2020/03/10 04:09:43;;;;;;;4.9;2.2;;;;;;;1.71;83.77246;938.3865;;;;
2020/03/10 04:12:08;;;;;;;3.3;1.6;;;;;;;1.72;83.67383;938.4183;;;;
2020/03/10 04:14:33;;;;;;;3.4;1.4;;;;;;;1.82;83.12305;938.5494;;;;
2020/03/10 04:16:59;;;;;;;2.3;1.5;;;;;;;1.85;82.77051;938.6934;;;;
2020/03/10 04:19:24;;;;;;;3.2;1.5;;;;;;;2;82.22949;938.6899;;;;
2020/03/10 04:21:49;;;;;;;4.6;1.6;;;;;;;2.14;81.8418;938.7522;;;;
2020/03/10 04:24:14;;;;;;;2.2;1.4;;;;;;;2.35;81.08594;938.8466;;;;
2020/03/10 04:26:39;;;;;;;3;1.6;;;;;;;2.38;81.04883;938.7231;;;;
2020/03/10 04:29:04;;;;;;;2.4;1.4;;;;;;;2.54;80.06934;938.8946;;;;
2020/03/10 04:31:45;;;;;;;3.9;1.4;;;;;;;2.53;80.16992;938.9306;;;;
2020/03/10 04:33:54;;;;;;;2.8;1.5;;;;;;;2.57;79.65137;938.8577;;;;
2020/03/10 04:36:20;;;;;;;3;1.5;;;;;;;2.27;80.60352;938.9348;;;;
2020/03/10 04:38:45;;;;;;;2.5;1.4;;;;;;;2.34;80.58203;938.9289;;;;
2020/03/10 04:41:10;;;;;;;4.2;1.5;;;;;;;2.35;80.65137;938.9781;;;;
2020/03/10 04:43:35;;;;;;;6.4;1.8;;;;;;;2.4;80.53809;938.9977;;;;
2020/03/10 04:46:00;;;;;;;3.3;1.5;;;;;;;2.46;80.50391;939.0179;;;;
2020/03/10 04:48:25;;;;;;;2.1;1.4;;;;;;;2.56;80.05176;939.0826;;;;
2020/03/10 04:50:50;;;;;;;2.4;1.2;;;;;;;2.6;80.06055;939.168;;;;
2020/03/10 04:53:16;;;;;;;3.2;1.6;;;;;;;2.74;79.48047;939.1498;;;;
2020/03/10 04:55:41;;;;;;;4.6;1.8;;;;;;;2.81;79.21387;939.1208;;;;
2020/03/10 04:58:06;;;;;;;4.2;1.7;;;;;;;2.9;78.84961;939.0181;;;;
2020/03/10 05:00:32;;;;;;;9.3;1.9;;;;;;;2.87;78.82031;938.9431;;;;
2020/03/10 05:02:57;;;;;;;3.1;1.5;;;;;;;2.88;78.87988;938.9246;;;;
2020/03/10 05:05:23;;;;;;;4.1;1.9;;;;;;;2.87;78.84375;938.8873;;;;
2020/03/10 05:07:50;;;;;;;4.8;2.3;;;;;;;2.87;78.84277;938.6836;;;;
2020/03/10 05:10:15;;;;;;;5.9;2.7;;;;;;;2.6;80.03613;938.6669;;;;
2020/03/10 05:12:40;;;;;;;9.5;3;;;;;;;2.52;80.38086;938.7424;;;;
2020/03/10 05:15:05;;;;;;;12.6;4.5;;;;;;;2.39;81.5332;938.7314;;;;
2020/03/10 05:17:30;;;;;;;10.5;3.6;;;;;;;2.58;80.93164;938.6921;;;;
2020/03/10 05:19:55;;;;;;;7.4;3;;;;;;;2.65;80.86328;938.6548;;;;
2020/03/10 05:22:20;;;;;;;9.7;4.5;;;;;;;2.85;79.87988;938.681;;;;
2020/03/10 05:24:45;;;;;;;12.4;4.6;;;;;;;2.93;79.38184;938.6599;;;;
2020/03/10 05:27:10;;;;;;;10.1;4.6;;;;;;;2.95;79.28418;938.5552;;;;
2020/03/10 05:29:35;;;;;;;14;6.1;;;;;;;2.96;79.59961;938.6168;;;;
2020/03/10 05:32:00;;;;;;;17.3;8.8;;;;;;;2.93;79.52734;938.5002;;;;
2020/03/10 05:34:26;;;;;;;16.4;9.7;;;;;;;2.9;79.49805;938.536;;;;
2020/03/10 05:36:51;;;;;;;18.1;9.1;;;;;;;2.86;80.09863;938.4866;;;;
2020/03/10 05:39:16;;;;;;;10.4;6.8;;;;;;;3;79.4043;938.4406;;;;
2020/03/10 05:41:41;;;;;;;10.2;6.2;;;;;;;3.06;79.07031;938.2703;;;;
2020/03/10 05:44:06;;;;;;;8;5.2;;;;;;;3.11;79.06738;938.3688;;;;
2020/03/10 05:46:31;;;;;;;10;5.2;;;;;;;3.12;79.0127;938.3167;;;;
2020/03/10 05:48:56;;;;;;;7.4;3.3;;;;;;;3.13;78.74707;938.2603;;;;
2020/03/10 05:51:21;;;;;;;7.3;2.7;;;;;;;3.07;78.92383;938.1406;;;;
2020/03/10 05:53:46;;;;;;;4.5;2.2;;;;;;;3.01;79.45313;938.0583;;;;
2020/03/10 05:56:12;;;;;;;4;1.9;;;;;;;3.07;79.41797;937.967;;;;
2020/03/10 05:58:38;;;;;;;4;2.1;;;;;;;2.98;79.82715;937.8531;;;;
2020/03/10 06:01:03;;;;;;;3.8;2.2;;;;;;;2.98;80.1875;937.8463;;;;
2020/03/10 06:03:29;;;;;;;7.4;2.3;;;;;;;3.17;79.52832;937.777;;;;
2020/03/10 06:05:54;;;;;;;5.7;2.3;;;;;;;3.36;78.38477;937.7322;;;;
2020/03/10 06:08:19;;;;;;;13.1;3.4;;;;;;;3.39;78.28809;937.5783;;;;
2020/03/10 06:10:44;;;;;;;7.2;2.3;;;;;;;3.11;79.24512;937.6576;;;;
2020/03/10 06:13:09;;;;;;;16.4;2.9;;;;;;;2.98;80.12988;937.6998;;;;
2020/03/10 06:15:34;;;;;;;11;3.3;;;;;;;2.8;81.27539;937.5955;;;;
2020/03/10 06:17:59;;;;;;;6.2;2.3;;;;;;;2.59;81.93945;937.4662;;;;
2020/03/10 06:20:24;;;;;;;7.9;2.8;;;;;;;2.6;82.08887;937.3979;;;;
2020/03/10 06:22:49;;;;;;;6.1;2.2;;;;;;;2.6;81.91895;937.2072;;;;
2020/03/10 06:25:15;;;;;;;7.7;2;;;;;;;2.59;81.93945;937.2665;;;;
2020/03/10 06:27:40;;;;;;;3.7;1.5;;;;;;;2.56;82.33789;937.235;;;;
2020/03/10 06:30:05;;;;;;;4.5;1.7;;;;;;;2.43;82.70605;937.2678;;;;
2020/03/10 06:32:31;;;;;;;4.5;1.3;;;;;;;2.4;82.50781;937.3322;;;;
2020/03/10 06:34:57;;;;;;;3.3;1.3;;;;;;;2.54;81.34863;937.3497;;;;
2020/03/10 06:37:23;;;;;;;9.5;1.7;;;;;;;2.65;80.23535;937.3736;;;;
2020/03/10 06:39:48;;;;;;;5.8;1.8;;;;;;;2.84;79.61133;937.3597;;;;
2020/03/10 06:42:13;;;;;;;4;1.6;;;;;;;3.06;78.87793;937.2869;;;;
2020/03/10 06:44:38;;;;;;;10.7;1.6;;;;;;;3.15;77.91797;937.2508;;;;
2020/03/10 06:47:04;;;;;;;3.4;1.6;;;;;;;3.34;77.30176;937.2341;;;;
2020/03/10 06:49:29;;;;;;;7.3;2.5;;;;;;;3.39;77.2998;937.3973;;;;
2020/03/10 06:51:54;;;;;;;7.8;2.9;;;;;;;3.46;78.33398;937.3314;;;;
2020/03/10 06:54:20;;;;;;;6.8;2.4;;;;;;;3.47;78.09961;937.2238;;;;
2020/03/10 06:56:46;;;;;;;7;2.8;;;;;;;3.56;78.27344;937.282;;;;
2020/03/10 06:59:11;;;;;;;16.4;4.2;;;;;;;3.8;76.83594;937.3251;;;;
2020/03/10 07:01:36;;;;;;;12.2;6.3;;;;;;;3.79;77.27148;937.212;;;;
2020/03/10 07:04:02;;;;;;;11.7;4.2;;;;;;;3.91;76.25977;937.2661;;;;
2020/03/10 07:06:27;;;;;;;16.8;2.8;;;;;;;3.8;75.40723;937.2824;;;;
2020/03/10 07:08:54;;;;;;;6.4;2.2;;;;;;;3.77;75.65918;937.2704;;;;
2020/03/10 07:11:19;;;;;;;3.1;2;;;;;;;3.89;75.26758;937.2827;;;;
2020/03/10 07:13:44;;;;;;;7.3;2.4;;;;;;;3.87;75.9375;937.3262;;;;
2020/03/10 07:16:10;;;;;;;12.5;2.9;;;;;;;3.98;76.00293;937.4755;;;;
2020/03/10 07:18:35;;;;;;;9.7;3.1;;;;;;;4.07;75.78125;937.5172;;;;
2020/03/10 07:21:02;;;;;;;21.2;4.1;;;;;;;4.23;75.03223;937.5469;;;;
2020/03/10 07:23:25;;;;;;;15.1;3.1;;;;;;;4.31;74.77832;937.4897;;;;
2020/03/10 07:25:50;;;;;;;11.4;3.2;;;;;;;4.3;74.48242;937.5499;;;;
2020/03/10 07:28:15;;;;;;;15.1;3.2;;;;;;;4.38;74.66504;937.5571;;;;
2020/03/10 07:30:41;;;;;;;10;2.6;;;;;;;4.37;75.04785;937.6682;;;;
2020/03/10 07:33:06;;;;;;;8.7;2.7;;;;;;;4.41;74.9873;937.7106;;;;
2020/03/10 07:35:31;;;;;;;6.6;2.8;;;;;;;4.46;75.30957;937.6867;;;;
2020/03/10 07:37:57;;;;;;;7.5;3;;;;;;;4.5;74.80957;937.7227;;;;
2020/03/10 07:40:24;;;;;;;12.5;2.9;;;;;;;4.6;74.72754;937.6456;;;;
2020/03/10 07:42:48;;;;;;;9.6;3.2;;;;;;;4.51;75.37793;937.5948;;;;
2020/03/10 07:45:13;;;;;;;23.5;4.1;;;;;;;4.52;74.75781;937.5935;;;;
2020/03/10 07:47:39;;;;;;;13.8;3.3;;;;;;;4.55;75.2041;937.5818;;;;
2020/03/10 07:50:04;;;;;;;13.3;3;;;;;;;4.61;75.47266;937.5507;;;;
2020/03/10 07:52:29;;;;;;;7.4;3.1;;;;;;;4.7;75.07129;937.5084;;;;
2020/03/10 07:54:54;;;;;;;9;3.6;;;;;;;4.59;75.65039;937.4127;;;;
2020/03/10 07:57:19;;;;;;;34.8;4.6;;;;;;;4.64;74.73535;937.4058;;;;
2020/03/10 07:59:44;;;;;;;11.5;2.5;;;;;;;4.86;72.54199;937.4182;;;;
2020/03/10 08:02:09;;;;;;;18.1;2.8;;;;;;;4.81;72.23047;937.3614;;;;
2020/03/10 08:04:34;;;;;;;26.8;10;;;;;;;5.01;71.89063;937.2584;;;;
2020/03/10 08:07:00;;;;;;;19.6;3;;;;;;;5.06;70.99609;937.2338;;;;
2020/03/10 08:09:25;;;;;;;12.7;2.1;;;;;;;5.17;70.86914;937.2371;;;;
2020/03/10 08:11:50;;;;;;;23.3;2.9;;;;;;;5.34;71.16699;937.2767;;;;
2020/03/10 08:14:15;;;;;;;6.8;1.5;;;;;;;5.38;69.29199;937.2762;;;;
2020/03/10 08:16:40;;;;;;;4.8;1.2;;;;;;;5.45;69.5166;937.3312;;;;
2020/03/10 08:19:05;;;;;;;13.8;2.1;;;;;;;5.57;70.68652;937.2452;;;;
2020/03/10 08:21:30;;;;;;;20.4;3.4;;;;;;;5.65;68.10352;937.2366;;;;
2020/03/10 08:23:56;;;;;;;10.6;3;;;;;;;5.7;66.89355;937.2299;;;;
2020/03/10 08:26:21;;;;;;;11.9;3.5;;;;;;;5.81;67.58789;937.1871;;;;
2020/03/10 08:28:46;;;;;;;16.7;6.8;;;;;;;5.86;68.38672;937.1688;;;;
2020/03/10 08:31:11;;;;;;;10.4;3.4;;;;;;;5.98;68.30371;937.1269;;;;
2020/03/10 08:33:37;;;;;;;20.9;6.6;;;;;;;6.13;68.08984;937.1;;;;
2020/03/10 08:36:02;;;;;;;23.9;7.2;;;;;;;6.19;66.80176;937.0137;;;;
2020/03/10 08:38:27;;;;;;;10.5;5.6;;;;;;;6.24;65.75586;937.0001;;;;
2020/03/10 08:40:52;;;;;;;11.1;5.4;;;;;;;6.32;64.72949;937.002;;;;
2020/03/10 08:43:17;;;;;;;4.9;2.1;;;;;;;6.16;64.07227;936.9506;;;;
2020/03/10 08:45:42;;;;;;;216.3;146.4;;;;;;;6.34;64.01855;936.9509;;;;
2020/03/10 08:48:07;;;;;;;7.4;4.5;;;;;;;6.34;64.51758;936.8412;;;;
2020/03/10 08:50:33;;;;;;;99.4;19.7;;;;;;;6.47;64.9209;936.8436;;;;
2020/03/10 08:52:58;;;;;;;19.8;4.4;;;;;;;6.37;63.74121;936.8861;;;;
2020/03/10 08:55:23;;;;;;;17;3.5;;;;;;;6.49;64.41504;936.7847;;;;
2020/03/10 08:57:48;;;;;;;21.5;15.3;;;;;;;6.6;61.75;936.8219;;;;
2020/03/10 09:00:13;;;;;;;4.3;2.8;;;;;;;6.78;60.72266;936.743;;;;
2020/03/10 09:02:38;;;;;;;23.5;6.7;;;;;;;6.87;62.15039;936.7365;;;;
2020/03/10 09:05:03;;;;;;;19.8;2.7;;;;;;;7.04;57.78125;936.7766;;;;
2020/03/10 09:07:29;;;;;;;10.6;2.3;;;;;;;6.98;61.02246;936.7045;;;;
2020/03/10 09:09:54;;;;;;;6.8;1.8;;;;;;;7.22;57.82813;936.6387;;;;
2020/03/10 09:12:19;;;;;;;44.3;27.5;;;;;;;7.33;54.53418;936.598;;;;
2020/03/10 09:14:45;;;;;;;12.5;5.2;;;;;;;7.31;56.44629;936.6356;;;;
2020/03/10 09:17:10;;;;;;;5.7;2;;;;;;;7.17;53.81152;936.5535;;;;
2020/03/10 09:19:35;;;;;;;5.5;2.1;;;;;;;7.07;51.6582;936.4501;;;;
2020/03/10 09:22:00;;;;;;;16;3.4;;;;;;;6.95;51.50684;936.5377;;;;
2020/03/10 09:24:25;;;;;;;7.7;2;;;;;;;7.09;51.06055;936.5433;;;;
2020/03/10 09:26:51;;;;;;;1.4;0.8;;;;;;;7.21;53.20313;936.3973;;;;
2020/03/10 09:31:41;;;;;;;6.6;1.2;;;;;;;7.33;51.88184;936.4895;;;;
2020/03/10 09:34:06;;;;;;;13.3;2.4;;;;;;;7.55;50.03711;936.3741;;;;
2020/03/10 09:36:32;;;;;;;20.6;3.1;;;;;;;7.67;50.0625;936.3772;;;;
2020/03/10 09:38:57;;;;;;;16.6;2.3;;;;;;;7.51;52.56152;936.4059;;;;
2020/03/10 09:41:23;;;;;;;7.9;1.4;;;;;;;7.82;52.97461;936.5458;;;;
2020/03/10 09:43:48;;;;;;;2.8;0.7;;;;;;;7.77;54.89648;936.4416;;;;
2020/03/10 09:46:13;;;;;;;8.4;1.7;;;;;;;7.65;55.1748;936.5322;;;;
2020/03/10 09:48:39;;;;;;;3.1;1.2;;;;;;;7.53;55.93066;936.5822;;;;
2020/03/10 09:51:04;;;;;;;5.5;1.5;;;;;;;7.55;56.7168;936.5381;;;;
2020/03/10 09:53:29;;;;;;;3.8;0.7;;;;;;;7.38;57.29395;936.5609;;;;
2020/03/10 09:55:55;;;;;;;3.2;0.7;;;;;;;7.07;58.43066;936.6244;;;;
2020/03/10 09:58:20;;;;;;;1.4;0.4;;;;;;;7.07;58.69141;936.5881;;;;
2020/03/10 10:01:18;;;;;;;1.9;1.2;;;;;;;7.23;58.56543;936.6387;;;;
2020/03/10 10:03:10;;;;;;;1.9;0.6;;;;;;;7.15;58.37402;936.5666;;;;
2020/03/10 10:05:35;;;;;;;2;0.9;;;;;;;7.04;58.4834;936.6175;;;;
2020/03/10 10:08:00;;;;;;;8.3;3.2;;;;;;;7.12;60.53418;936.6982;;;;
2020/03/10 10:10:25;;;;;;;39.9;9.8;;;;;;;6.89;61.59961;936.8025;;;;
2020/03/10 10:12:51;;;;;;;20.2;5.6;;;;;;;7.02;61.25586;936.7422;;;;
2020/03/10 10:15:16;;;;;;;5.1;2.4;;;;;;;6.96;60.13672;936.7589;;;;
2020/03/10 10:17:41;;;;;;;14.3;3.6;;;;;;;6.82;59.42773;936.7759;;;;
2020/03/10 10:20:06;;;;;;;9;3.4;;;;;;;6.99;60.01758;936.7538;;;;
2020/03/10 10:22:31;;;;;;;7.8;3.6;;;;;;;6.89;60.80762;936.8002;;;;
2020/03/10 10:24:56;;;;;;;3.8;1;;;;;;;6.71;61.83398;936.9615;;;;
2020/03/10 10:27:21;;;;;;;1;0.7;;;;;;;6.75;62.32617;936.8627;;;;
2020/03/10 10:29:46;;;;;;;1;0.6;;;;;;;6.6;65.03027;936.8677;;;;
2020/03/10 10:32:11;;;;;;;1.3;0.8;;;;;;;6.71;65.18457;936.8958;;;;
2020/03/10 10:34:37;;;;;;;1.3;0.7;;;;;;;6.45;65.75391;936.9925;;;;
2020/03/10 10:37:01;;;;;;;2.2;0.8;;;;;;;6.31;66.84082;937.0223;;;;
2020/03/10 10:39:27;;;;;;;1.4;0.7;;;;;;;6.19;69.77441;937.0217;;;;
2020/03/10 10:41:52;;;;;;;2;0.9;;;;;;;5.74;72.98633;937.1196;;;;
2020/03/10 10:44:19;;;;;;;6.5;2.9;;;;;;;5.81;72.39844;937.165;;;;
2020/03/10 10:46:43;;;;;;;3.8;2.2;;;;;;;5.82;70.97754;937.1013;;;;
2020/03/10 10:49:10;;;;;;;2.8;1.4;;;;;;;5.79;72.50879;937.1934;;;;
2020/03/10 10:51:34;;;;;;;1.7;0.6;;;;;;;5.7;74.11914;937.1288;;;;
2020/03/10 10:53:59;;;;;;;1.6;0.7;;;;;;;5.73;75.64648;937.1373;;;;
2020/03/10 10:56:24;;;;;;;1.1;0.8;;;;;;;5.48;76.05469;937.002;;;;
2020/03/10 10:58:51;;;;;;;3.8;2.7;;;;;;;5.3;77.49023;937.1036;;;;
2020/03/10 11:01:16;;;;;;;10.7;7.4;;;;;;;5.3;78.06348;937.0955;;;;
2020/03/10 11:03:41;;;;;;;2.1;1;;;;;;;4.95;81.04395;937.0049;;;;
2020/03/10 11:06:11;;;;;;;2.9;1.2;;;;;;;4.62;82.7041;937.0928;;;;
2020/03/10 11:08:33;;;;;;;1.7;0.9;;;;;;;4.51;82.98633;936.9963;;;;
2020/03/10 11:10:56;;;;;;;1.9;0.6;;;;;;;4.31;84.81641;936.9254;;;;
2020/03/10 11:13:22;;;;;;;2.6;0.9;;;;;;;4.43;85.69531;936.8299;;;;
2020/03/10 11:15:47;;;;;;;2.2;0.7;;;;;;;4.52;85.73535;936.9129;;;;
2020/03/10 11:18:12;;;;;;;1.3;0.7;;;;;;;4.55;85.66211;936.8696;;;;
2020/03/10 11:20:37;;;;;;;2;0.8;;;;;;;4.65;84.3418;936.7672;;;;
2020/03/10 11:23:02;;;;;;;2.3;0.9;;;;;;;4.66;84.60254;936.8432;;;;
2020/03/10 11:25:27;;;;;;;1.6;0.8;;;;;;;4.82;84.43262;936.8331;;;;
2020/03/10 11:27:53;;;;;;;2.7;0.8;;;;;;;4.84;83.82715;936.8179;;;;
2020/03/10 11:30:18;;;;;;;2.4;1.4;;;;;;;4.85;82.38867;936.7378;;;;
2020/03/10 11:32:44;;;;;;;2.7;0.9;;;;;;;5.03;82.55859;936.8376;;;;
2020/03/10 11:35:09;;;;;;;2.7;0.9;;;;;;;4.78;81.65234;936.7756;;;;
2020/03/10 11:37:34;;;;;;;2.4;1.1;;;;;;;4.99;83.50781;936.6667;;;;
2020/03/10 11:39:59;;;;;;;1.7;0.9;;;;;;;4.99;81.9541;936.7536;;;;
2020/03/10 11:42:24;;;;;;;1.7;0.8;;;;;;;5.14;82.03711;936.6876;;;;
2020/03/10 11:44:49;;;;;;;2.1;1.2;;;;;;;5.08;83.61621;936.5865;;;;
2020/03/10 11:47:15;;;;;;;1.9;0.8;;;;;;;5.25;81.74316;936.5417;;;;
2020/03/10 11:49:39;;;;;;;2.4;0.9;;;;;;;5.31;82.1709;936.5834;;;;
2020/03/10 11:52:05;;;;;;;2.8;1.3;;;;;;;5.56;80.76563;936.5153;;;;
2020/03/10 11:54:30;;;;;;;5.2;2.8;;;;;;;5.54;82.76953;936.465;;;;
2020/03/10 11:56:55;;;;;;;2;1.1;;;;;;;5.47;81.82031;936.5139;;;;
2020/03/10 11:59:20;;;;;;;2.6;1.8;;;;;;;5.51;81.43262;936.4816;;;;
2020/03/10 12:01:45;;;;;;;5.6;1.8;;;;;;;5.63;81.86133;936.4407;;;;
2020/03/10 12:04:10;;;;;;;3.9;1.1;;;;;;;5.7;81.24316;936.4282;;;;
2020/03/10 12:06:35;;;;;;;1.7;1.2;;;;;;;5.49;81.41602;936.4344;;;;
2020/03/10 12:09:00;;;;;;;2.7;1.1;;;;;;;5.38;82.77148;936.3342;;;;
2020/03/10 12:11:25;;;;;;;3.3;1.8;;;;;;;5.38;82.11914;936.3959;;;;
2020/03/10 12:13:50;;;;;;;3.8;1.4;;;;;;;5.37;82.98438;936.4224;;;;
2020/03/10 12:16:15;;;;;;;2.1;1.2;;;;;;;5.26;82.92969;936.4047;;;;
2020/03/10 12:18:41;;;;;;;2.6;1.3;;;;;;;5.39;84.07129;936.3889;;;;
2020/03/10 12:21:06;;;;;;;3.4;1.8;;;;;;;5.5;83.38086;936.3525;;;;
2020/03/10 12:23:31;;;;;;;2.7;1.6;;;;;;;5.53;83.28711;936.3376;;;;
2020/03/10 12:25:56;;;;;;;5.9;5.3;;;;;;;5.48;83.38867;936.2645;;;;
2020/03/10 12:28:21;;;;;;;8.3;7;;;;;;;5.41;83.29785;936.277;;;;
2020/03/10 12:30:46;;;;;;;10.1;6.6;;;;;;;5.52;82.99121;936.2039;;;;
2020/03/10 12:33:12;;;;;;;2.3;1.9;;;;;;;5.5;83.45996;936.2081;;;;
2020/03/10 12:35:37;;;;;;;1.7;1.2;;;;;;;5.69;82.83301;936.2012;;;;
2020/03/10 12:38:02;;;;;;;3.9;2.3;;;;;;;5.63;81.59082;936.1042;;;;
2020/03/10 12:40:27;;;;;;;2.6;1.6;;;;;;;5.56;82.54688;936.065;;;;
2020/03/10 12:42:52;;;;;;;2.9;2.3;;;;;;;5.54;82.87109;936.1205;;;;
2020/03/10 12:45:17;;;;;;;3.4;1.5;;;;;;;5.72;83.2334;936.0574;;;;
2020/03/10 12:47:42;;;;;;;12.6;9.6;;;;;;;5.79;83.58594;936.0187;;;;
2020/03/10 12:50:07;;;;;;;3.8;2.7;;;;;;;5.72;83.95605;936.0449;;;;
2020/03/10 12:52:32;;;;;;;1.9;1.2;;;;;;;5.86;81.78027;936.106;;;;
2020/03/10 12:54:57;;;;;;;2.2;1.6;;;;;;;5.92;82.59473;936.0373;;;;
2020/03/10 12:57:23;;;;;;;1.8;1.4;;;;;;;5.82;82.90234;936.1105;;;;
2020/03/10 12:59:48;;;;;;;3.5;3;;;;;;;5.85;84.24023;936.0267;;;;
2020/03/10 13:02:13;;;;;;;1.7;1.3;;;;;;;5.61;83.15723;936.0887;;;;
2020/03/10 13:04:38;;;;;;;3.3;1.5;;;;;;;5.42;83.42383;936.0774;;;;
2020/03/10 13:07:04;;;;;;;2.6;1.2;;;;;;;5.28;84.58105;936.0706;;;;
2020/03/10 13:09:29;;;;;;;1.6;0.9;;;;;;;5.38;84.57715;936.0634;;;;
2020/03/10 13:11:54;;;;;;;0.8;0.5;;;;;;;5.24;83.54492;936.0251;;;;
2020/03/10 13:14:20;;;;;;;0.7;0.5;;;;;;;5.46;83.74805;936.0784;;;;
2020/03/10 13:16:45;;;;;;;0.8;0.6;;;;;;;5.4;84.46973;936.0648;;;;
2020/03/10 13:19:10;;;;;;;1.2;0.7;;;;;;;5.44;83.59668;935.8425;;;;
2020/03/10 13:21:35;;;;;;;0.7;0.6;;;;;;;5.46;83.20703;935.8914;;;;
2020/03/10 13:24:01;;;;;;;0.8;0.7;;;;;;;5.61;83.54102;935.9214;;;;
2020/03/10 13:26:26;;;;;;;1;0.6;;;;;;;5.58;83.36328;935.8278;;;;
2020/03/10 13:28:51;;;;;;;0.9;0.5;;;;;;;5.61;83.70898;935.7902;;;;
2020/03/10 13:31:16;;;;;;;1;0.7;;;;;;;5.75;83.4082;935.7658;;;;
2020/03/10 13:33:42;;;;;;;0.5;0.4;;;;;;;5.73;83.76758;935.7322;;;;
2020/03/10 13:36:07;;;;;;;0.8;0.5;;;;;;;5.68;82.78613;935.7058;;;;
2020/03/10 13:38:32;;;;;;;0.7;0.6;;;;;;;5.7;83.39941;935.6841;;;;
2020/03/10 13:40:58;;;;;;;1.1;0.6;;;;;;;5.78;83.60742;935.6583;;;;
2020/03/10 13:43:23;;;;;;;1.3;0.7;;;;;;;5.55;83.4707;935.67;;;;
2020/03/10 13:45:48;;;;;;;1.7;0.9;;;;;;;5.47;84.13184;935.6389;;;;
2020/03/10 13:48:13;;;;;;;1.5;0.9;;;;;;;5.6;84.3623;935.6119;;;;
2020/03/10 13:50:38;;;;;;;1.5;1.1;;;;;;;;;;;;;
2020/03/10 13:53:03;;;;;;;1;0.9;;;;;;;;;;;;;
2020/03/10 13:55:28;;;;;;;1;0.8;;;;;;;;;;;;;
2020/03/10 13:57:53;;;;;;;2.3;0.9;;;;;;;;;;;;;
2020/03/10 14:00:18;;;;;;;0.7;0.5;;;;;;;;;;;;;
2020/03/10 14:02:44;;;;;;;1.6;0.8;;;;;;;;;;;;;
2020/03/10 14:05:09;;;;;;;2.7;1.5;;;;;;;;;;;;;
2020/03/10 14:07:34;;;;;;;1;0.7;;;;;;;;;;;;;
2020/03/10 14:09:59;;;;;;;0.8;0.7;;;;;;;;;;;;;
2020/03/10 14:12:24;;;;;;;1;0.5;;;;;;;;;;;;;
2020/03/10 14:14:50;;;;;;;0.5;0.4;;;;;;;;;;;;;
2020/03/10 14:17:15;;;;;;;1.1;0.6;;;;;;;;;;;;;
2020/03/10 14:19:40;;;;;;;0.6;0.5;;;;;;;;;;;;;
2020/03/10 14:22:05;;;;;;;0.7;0.5;;;;;;;;;;;;;
2020/03/10 14:24:31;;;;;;;0.9;0.4;;;;;;;;;;;;;
2020/03/10 14:26:55;;;;;;;2.3;2.1;;;;;;;;;;;;;
2020/03/10 14:29:20;;;;;;;1;0.6;;;;;;;;;;;;;
2020/03/10 14:31:46;;;;;;;0.5;0.5;;;;;;;;;;;;;
2020/03/10 14:34:11;;;;;;;0.7;0.6;;;;;;;;;;;;;
2020/03/10 14:36:36;;;;;;;0.6;0.4;;;;;;;;;;;;;
2020/03/10 14:39:01;;;;;;;0.6;0.6;;;;;;;;;;;;;
2020/03/10 14:41:26;;;;;;;0.7;0.5;;;;;;;;;;;;;
2020/03/10 14:43:51;;;;;;;1.6;0.8;;;;;;;;;;;;;
2020/03/10 14:46:17;;;;;;;1.2;0.6;;;;;;;;;;;;;
2020/03/10 14:48:42;;;;;;;0.9;0.6;;;;;;;;;;;;;
2020/03/10 14:51:07;;;;;;;1;0.5;;;;;;;;;;;;;
2020/03/10 14:53:32;;;;;;;1.5;0.6;;;;;;;;;;;;;
2020/03/10 14:55:57;;;;;;;1.3;0.5;;;;;;;;;;;;;
2020/03/10 14:58:22;;;;;;;0.7;0.6;;;;;;;;;;;;;